SBJP/JPA METAR and TAF weather

Enter ICAO airport designator
Station Type Date Time Source
SBJP METAR 2019/09/20 20:35 UTC NOAA

SBJP 202035Z 15013KT 2800 -RA BKN010 OVC070 23/23 Q1015


Station Type Date Time Source
SBJP Decoded METAR 2019/09/20 20:35 UTC NOAA

Joao Pessoa, Brazil (SBJP) 07-06S 034-52W
Sep 20, 2019 - 04:35 PM EDT / 2019.09.20 2035 UTC
Wind: from the SSE (150 degrees) at 15 MPH (13 KT):0
Visibility: 1 mile(s):0
Sky conditions: overcast
Weather: light rain
Temperature: 73 F (23 C)
Dew Point: 73 F (23 C)
Relative Humidity: 100%
Pressure (altimeter): 29.97 in. Hg (1015 hPa)
ob: SBJP 202035Z 15013KT 2800 -RA BKN010 OVC070 23/23 Q1015
cycle: 20

Station Type Date Time Source
SBJP TAF 2019/09/20 18:45 UTC NOAA

TAF TAF SBJP 201600Z 2018/2118 12013KT 9999 SCT020 TN21/2107Z TX29/2116Z
BECMG 2020/2022 15010KT
BECMG 2106/2108 8000 BKN018
BECMG 2112/2114 14015KT
BECMG 2115/2117 SCT020
RMK PEU

Example: see airport list